Time;durP1;ratioP1;P1;durP2;ratioP2;P2;SDS_P1;SDS_P2;PMS_P1;PMS_P2;Temp;Humidity;BMP_temperature;BMP_pressure;BME280_temperature;BME280_humidity;BME280_pressure;Samples;Min_cycle;Max_cycle;Signal;HPM_P1;HPM_P2
2023/02/01 00:01:07;;;;;;;35.45;11.90;;;3.70;99.90;;;;;;5057167;28;20501;-78
2023/02/01 00:03:34;;;;;;;34.15;8.90;;;3.70;99.90;;;;;;5031961;28;20543;-79
2023/02/01 00:06:01;;;;;;;41.08;10.15;;;3.70;99.90;;;;;;5042504;28;20045;-80
2023/02/01 00:08:28;;;;;;;27.60;8.35;;;3.60;99.90;;;;;;5051198;28;20200;-77
2023/02/01 00:11:02;;;;;;;23.10;9.80;;;3.60;99.90;;;;;;5053216;28;20048;-79
2023/02/01 00:13:34;;;;;;;24.92;9.20;;;3.70;99.90;;;;;;5042130;28;20415;-79
2023/02/01 00:16:05;;;;;;;35.45;10.48;;;3.70;99.90;;;;;;5048346;28;20063;-79
2023/02/01 00:18:32;;;;;;;34.60;9.55;;;3.70;99.90;;;;;;5050899;28;20033;-78
2023/02/01 00:20:59;;;;;;;38.95;10.15;;;3.70;99.90;;;;;;5048735;28;20047;-80
2023/02/01 00:23:26;;;;;;;29.02;8.73;;;3.80;99.90;;;;;;5035441;28;20047;-78
2023/02/01 00:25:53;;;;;;;48.72;12.00;;;3.80;99.90;;;;;;5050867;28;20037;-79
2023/02/01 00:28:20;;;;;;;35.72;13.13;;;3.80;99.90;;;;;;5047727;28;20044;-79
2023/02/01 00:30:46;;;;;;;29.52;10.15;;;3.80;99.90;;;;;;5052275;28;20044;-77
2023/02/01 00:33:13;;;;;;;44.13;11.70;;;3.80;99.90;;;;;;5043560;28;20049;-80
2023/02/01 00:35:40;;;;;;;36.20;11.57;;;3.90;99.90;;;;;;5037587;28;20047;-78
2023/02/01 00:38:06;;;;;;;28.85;10.95;;;3.80;99.90;;;;;;5056915;28;20203;-78
2023/02/01 00:40:33;;;;;;;31.95;10.05;;;3.90;99.90;;;;;;5065703;28;20272;-79
2023/02/01 00:43:00;;;;;;;32.97;11.27;;;3.80;99.90;;;;;;5036908;28;20067;-77
2023/02/01 00:45:26;;;;;;;27.08;9.52;;;3.80;99.90;;;;;;5044864;28;20135;-79
2023/02/01 00:47:53;;;;;;;33.60;9.57;;;3.80;99.90;;;;;;5055374;28;20503;-78
2023/02/01 00:50:20;;;;;;;31.63;9.82;;;3.80;99.90;;;;;;5056403;28;20057;-78
2023/02/01 00:52:47;;;;;;;28.58;11.65;;;3.80;99.90;;;;;;5045333;28;20501;-78
2023/02/01 00:55:14;;;;;;;32.88;10.88;;;3.80;99.90;;;;;;5058148;28;20056;-79
2023/02/01 00:57:40;;;;;;;39.42;10.63;;;3.80;99.90;;;;;;5053667;28;20041;-80
2023/02/01 01:00:08;;;;;;;40.42;10.40;;;3.80;99.90;;;;;;5035653;28;20098;-78
2023/02/01 01:02:35;;;;;;;35.15;10.95;;;3.80;99.90;;;;;;5039754;28;20028;-79
2023/02/01 01:05:02;;;;;;;24.02;10.40;;;3.80;99.90;;;;;;5053215;28;20036;-77
2023/02/01 01:07:29;;;;;;;35.78;10.00;;;3.80;99.90;;;;;;5068765;28;20045;-79
2023/02/01 01:09:56;;;;;;;25.58;9.27;;;3.80;99.90;;;;;;5058594;28;20131;-78
2023/02/01 01:12:22;;;;;;;30.45;10.40;;;3.80;99.90;;;;;;5033989;28;20090;-78
2023/02/01 01:14:49;;;;;;;30.08;9.48;;;3.80;99.90;;;;;;5047006;28;20066;-79
2023/02/01 01:17:16;;;;;;;32.42;10.85;;;3.80;99.90;;;;;;5049187;28;20048;-79
2023/02/01 01:19:43;;;;;;;37.88;11.13;;;3.70;99.90;;;;;;5058555;28;20050;-78
2023/02/01 01:22:09;;;;;;;32.60;10.23;;;3.80;99.90;;;;;;5047658;28;20060;-78
2023/02/01 01:24:36;;;;;;;31.95;9.82;;;3.80;99.90;;;;;;5060250;28;20032;-78
2023/02/01 01:27:03;;;;;;;28.10;11.30;;;3.80;99.90;;;;;;5035797;28;20124;-78
2023/02/01 01:29:29;;;;;;;29.55;10.75;;;3.90;99.90;;;;;;5033659;28;20040;-80
2023/02/01 01:31:56;;;;;;;33.70;11.38;;;3.90;99.90;;;;;;5034127;28;20514;-78
2023/02/01 01:34:23;;;;;;;34.65;12.32;;;3.90;99.90;;;;;;5050515;28;20052;-79
2023/02/01 01:36:49;;;;;;;38.97;11.07;;;3.90;99.90;;;;;;5051746;28;20040;-80
2023/02/01 01:39:16;;;;;;;36.30;12.05;;;3.90;99.90;;;;;;5050092;28;20448;-78
2023/02/01 01:41:43;;;;;;;33.72;11.70;;;3.90;99.90;;;;;;5051291;28;20041;-79
2023/02/01 01:44:54;;;;;;;36.38;11.60;;;4.00;99.90;;;;;;5046476;28;20036;-79
2023/02/01 01:47:22;;;;;;;26.02;12.50;;;3.90;99.90;;;;;;5037656;28;20048;-80
2023/02/01 01:49:49;;;;;;;37.25;12.43;;;3.90;99.90;;;;;;5057315;28;20056;-79
2023/02/01 01:52:17;;;;;;;35.50;12.57;;;3.90;99.90;;;;;;5052728;28;20052;-78
2023/02/01 01:54:51;;;;;;;39.33;14.13;;;4.00;99.90;;;;;;5051424;28;20309;-79
2023/02/01 01:57:25;;;;;;;52.38;14.77;;;4.00;99.90;;;;;;5022301;28;20157;-78
2023/02/01 02:00:05;;;;;;;37.28;14.30;;;4.00;99.90;;;;;;5028268;28;20028;-78
2023/02/01 02:02:41;;;;;;;49.75;14.55;;;4.00;99.90;;;;;;5045214;28;20510;-79
2023/02/01 02:05:09;;;;;;;48.38;15.85;;;4.00;99.90;;;;;;5039788;28;20063;-79
2023/02/01 02:07:41;;;;;;;40.33;15.27;;;4.00;99.90;;;;;;5027839;28;20033;-78
2023/02/01 02:10:11;;;;;;;42.83;16.17;;;4.10;99.90;;;;;;5028410;28;20067;-79
2023/02/01 02:12:40;;;;;;;44.15;17.02;;;4.10;99.90;;;;;;5028932;28;20069;-78
2023/02/01 02:15:09;;;;;;;49.03;16.40;;;4.00;99.90;;;;;;5032638;28;20232;-79
2023/02/01 02:18:05;;;;;;;33.85;14.18;;;4.10;99.90;;;;;;5015049;28;20079;-78
2023/02/01 02:20:57;;;;;;;47.10;16.10;;;4.10;99.90;;;;;;5010526;28;20040;-79
2023/02/01 02:23:43;;;;;;;38.08;16.40;;;4.10;99.90;;;;;;5029105;28;20056;-79
2023/02/01 02:26:34;;;;;;;35.00;14.10;;;4.10;99.90;;;;;;5012350;28;20041;-79
2023/02/01 02:29:23;;;;;;;43.83;15.93;;;4.10;99.90;;;;;;5038625;28;20049;-78
2023/02/01 02:32:28;;;;;;;41.45;15.40;;;4.10;99.90;;;;;;5032831;28;20049;-79
2023/02/01 02:35:32;;;;;;;38.67;13.85;;;4.10;99.90;;;;;;5032806;28;20196;-80
2023/02/01 02:38:28;;;;;;;42.08;15.38;;;4.20;99.90;;;;;;5020926;28;20561;-79
2023/02/01 02:47:23;;;;;;;36.60;12.95;;;4.10;99.90;;;;;;5026929;28;20399;-79
2023/02/01 02:47:50;;;;;;;31.70;11.23;;;4.20;99.90;;;;;;5027877;28;20049;-79
2023/02/01 03:04:58;;;;;;;31.38;12.77;;;4.20;99.90;;;;;;5056167;28;20056;-78
2023/02/01 03:07:44;;;;;;;32.92;11.40;;;4.20;99.90;;;;;;5024497;28;20531;-79
2023/02/01 03:10:36;;;;;;;36.08;12.48;;;4.20;99.90;;;;;;5039005;28;20471;-80
2023/02/01 03:13:09;;;;;;;24.73;11.10;;;4.20;99.90;;;;;;5042302;28;20149;-79
2023/02/01 03:15:45;;;;;;;33.17;13.32;;;4.20;99.90;;;;;;5043163;28;20136;-78
2023/02/01 03:18:18;;;;;;;23.45;9.82;;;4.20;99.90;;;;;;5034967;28;20636;-79
2023/02/01 03:20:51;;;;;;;31.05;12.38;;;4.20;99.90;;;;;;5040481;28;20194;-78
2023/02/01 03:23:21;;;;;;;27.05;11.20;;;4.20;99.90;;;;;;5041551;28;20514;-78
2023/02/01 03:25:50;;;;;;;26.58;12.63;;;4.20;99.90;;;;;;5050041;28;20053;-78
2023/02/01 03:28:21;;;;;;;23.27;10.93;;;4.20;99.90;;;;;;5036928;28;20059;-78
2023/02/01 03:30:49;;;;;;;25.10;11.52;;;4.20;99.90;;;;;;5026906;28;20053;-79
2023/02/01 03:33:22;;;;;;;21.42;10.98;;;4.30;99.90;;;;;;5026374;28;20344;-79
2023/02/01 03:36:09;;;;;;;29.50;12.20;;;4.20;99.90;;;;;;5042467;28;20049;-79
2023/02/01 03:38:39;;;;;;;63.95;14.82;;;4.30;99.90;;;;;;5025313;28;20109;-78
2023/02/01 03:41:28;;;;;;;26.35;12.32;;;4.20;99.90;;;;;;5026433;28;20045;-78
2023/02/01 03:44:06;;;;;;;33.22;11.52;;;4.30;99.90;;;;;;5062062;28;20248;-78
2023/02/01 03:46:42;;;;;;;27.52;12.25;;;4.20;99.90;;;;;;5048871;28;20041;-78
2023/02/01 03:49:22;;;;;;;34.47;11.57;;;4.30;99.90;;;;;;5024722;28;20238;-78
2023/02/01 03:51:51;;;;;;;24.30;10.35;;;4.20;99.90;;;;;;5044252;28;20198;-78
2023/02/01 03:54:18;;;;;;;25.88;11.30;;;4.30;99.90;;;;;;5041577;28;20152;-79
2023/02/01 03:56:47;;;;;;;26.23;11.77;;;4.20;99.90;;;;;;5038810;28;20040;-78
2023/02/01 03:59:14;;;;;;;36.58;12.23;;;4.20;99.90;;;;;;5032255;28;20120;-79
2023/02/01 04:01:41;;;;;;;27.92;11.48;;;4.20;99.90;;;;;;5017086;28;20061;-80
2023/02/01 04:04:09;;;;;;;32.53;11.35;;;4.20;99.90;;;;;;5036642;28;20202;-79
2023/02/01 04:06:37;;;;;;;33.65;11.23;;;4.20;99.90;;;;;;5017127;28;20037;-79
2023/02/01 04:09:04;;;;;;;25.05;11.90;;;4.30;99.90;;;;;;5028008;28;20136;-79
2023/02/01 04:11:31;;;;;;;38.58;12.93;;;4.30;99.90;;;;;;5024929;28;20871;-82
2023/02/01 04:13:57;;;;;;;27.40;11.63;;;4.20;99.90;;;;;;5029569;28;20048;-78
2023/02/01 04:16:24;;;;;;;24.42;11.88;;;4.20;99.90;;;;;;5032700;28;20037;-78
2023/02/01 04:18:51;;;;;;;26.45;11.07;;;4.20;99.90;;;;;;5020784;28;20045;-80
2023/02/01 04:21:17;;;;;;;18.38;10.82;;;4.30;99.90;;;;;;5033041;28;20037;-77
2023/02/01 04:23:43;;;;;;;23.25;11.10;;;4.20;99.90;;;;;;5016742;28;20083;-80
2023/02/01 04:26:10;;;;;;;25.08;11.90;;;4.30;99.90;;;;;;5022089;28;20049;-82
2023/02/01 04:28:37;;;;;;;17.42;9.45;;;4.30;99.90;;;;;;5026146;28;20047;-81
2023/02/01 04:31:04;;;;;;;28.80;11.48;;;4.30;99.90;;;;;;5041519;28;20108;-77
2023/02/01 04:33:31;;;;;;;25.15;12.40;;;4.30;99.90;;;;;;5039139;28;20818;-78
2023/02/01 04:35:58;;;;;;;26.80;12.02;;;4.30;99.90;;;;;;5025448;28;20045;-76
2023/02/01 04:38:26;;;;;;;26.02;12.73;;;4.30;99.90;;;;;;5029130;28;20534;-80
2023/02/01 04:40:53;;;;;;;30.33;13.02;;;4.20;99.90;;;;;;5052342;28;20078;-78
2023/02/01 04:43:20;;;;;;;30.73;12.98;;;4.20;99.90;;;;;;5035782;28;20059;-78
2023/02/01 04:45:48;;;;;;;23.13;11.98;;;4.30;99.90;;;;;;5032811;28;20041;-78
2023/02/01 04:48:17;;;;;;;32.97;12.30;;;4.30;99.90;;;;;;5052494;28;20052;-78
2023/02/01 04:50:47;;;;;;;35.33;12.70;;;4.30;99.90;;;;;;5034097;28;20404;-80
2023/02/01 04:53:17;;;;;;;27.80;12.23;;;4.30;99.90;;;;;;5020572;28;20124;-78
2023/02/01 04:55:44;;;;;;;28.90;12.77;;;4.20;99.90;;;;;;5029006;28;20045;-78
2023/02/01 04:58:11;;;;;;;25.30;11.38;;;4.30;99.90;;;;;;5013929;28;20330;-82
2023/02/01 05:00:38;;;;;;;21.92;11.07;;;4.30;99.90;;;;;;5031556;28;20482;-79
2023/02/01 05:03:05;;;;;;;28.30;10.63;;;4.20;99.90;;;;;;5030589;28;20409;-79
2023/02/01 05:05:31;;;;;;;32.17;11.20;;;4.20;99.90;;;;;;5026937;28;20159;-80
2023/02/01 05:07:58;;;;;;;22.42;8.75;;;4.20;99.90;;;;;;5031134;28;20054;-79
2023/02/01 05:10:25;;;;;;;30.17;11.52;;;4.20;99.90;;;;;;5019814;28;20037;-77
2023/02/01 05:15:37;;;;;;;29.70;9.45;;;4.10;99.90;;;;;;5033827;28;20061;-80
2023/02/01 05:18:04;;;;;;;15.07;7.35;;;4.10;99.90;;;;;;5033014;28;20053;-79
2023/02/01 05:20:30;;;;;;;25.88;8.38;;;4.10;99.90;;;;;;5039766;28;21353;-79
2023/02/01 05:22:57;;;;;;;30.38;9.65;;;4.10;99.90;;;;;;5030631;28;20073;-77
2023/02/01 05:25:24;;;;;;;23.55;7.93;;;4.10;99.90;;;;;;5037484;28;20060;-78
2023/02/01 05:27:50;;;;;;;28.55;7.55;;;4.10;99.90;;;;;;5037386;28;20040;-80
2023/02/01 05:30:17;;;;;;;19.13;7.70;;;4.00;99.90;;;;;;5029617;28;20118;-79
2023/02/01 05:32:44;;;;;;;20.88;7.25;;;4.00;99.90;;;;;;5051591;28;20044;-81
2023/02/01 05:35:11;;;;;;;20.08;7.03;;;4.00;99.90;;;;;;5031850;28;20554;-85
2023/02/01 05:37:38;;;;;;;30.02;8.75;;;4.00;99.90;;;;;;5045374;28;20036;-83
2023/02/01 05:40:05;;;;;;;31.52;8.52;;;4.00;99.90;;;;;;5042193;28;20051;-83
2023/02/01 05:42:32;;;;;;;29.65;7.60;;;4.00;99.90;;;;;;5019806;28;20068;-79
2023/02/01 05:44:59;;;;;;;27.75;6.82;;;4.00;99.90;;;;;;5036329;28;20045;-79
2023/02/01 05:47:25;;;;;;;26.63;8.13;;;3.90;99.90;;;;;;5020531;28;20121;-81
2023/02/01 05:49:52;;;;;;;26.48;7.15;;;3.90;99.90;;;;;;5017811;28;20378;-81
2023/02/01 05:52:19;;;;;;;29.65;6.90;;;3.90;99.90;;;;;;5018810;28;20141;-80
2023/02/01 05:54:47;;;;;;;30.85;7.95;;;3.90;99.90;;;;;;5020264;28;20457;-80
2023/02/01 05:57:16;;;;;;;23.98;7.47;;;3.90;99.90;;;;;;5047810;28;20179;-80
2023/02/01 05:59:45;;;;;;;27.67;7.35;;;3.80;99.90;;;;;;5053239;28;20727;-80
2023/02/01 06:02:12;;;;;;;21.60;6.40;;;3.80;99.90;;;;;;5025067;28;20071;-80
2023/02/01 06:04:39;;;;;;;26.02;6.15;;;3.80;99.90;;;;;;5044696;28;20055;-79
2023/02/01 06:07:07;;;;;;;26.00;6.30;;;3.80;99.90;;;;;;5036905;28;21423;-79
2023/02/01 06:09:35;;;;;;;33.85;8.07;;;3.90;99.90;;;;;;5027330;28;20524;-78
2023/02/01 06:12:03;;;;;;;27.05;8.55;;;3.90;99.90;;;;;;5027602;28;20095;-80
2023/02/01 06:14:29;;;;;;;23.42;6.95;;;3.90;99.90;;;;;;5032955;28;20043;-81
2023/02/01 06:16:56;;;;;;;19.10;6.45;;;3.90;99.90;;;;;;5045393;28;20072;-79
2023/02/01 06:19:23;;;;;;;38.35;7.70;;;3.90;99.90;;;;;;5050491;28;20482;-79
2023/02/01 06:21:50;;;;;;;27.60;7.88;;;3.90;99.90;;;;;;5067528;28;20109;-79
2023/02/01 06:24:17;;;;;;;17.50;6.80;;;3.90;99.90;;;;;;5037434;28;20683;-80
2023/02/01 06:26:44;;;;;;;23.40;7.13;;;4.00;99.90;;;;;;5032015;28;20045;-80
2023/02/01 06:29:11;;;;;;;26.30;7.57;;;4.00;99.90;;;;;;5027512;28;20048;-78
2023/02/01 06:31:38;;;;;;;29.52;7.18;;;4.00;99.90;;;;;;5053395;28;20032;-81
2023/02/01 06:34:04;;;;;;;19.63;7.53;;;4.10;99.90;;;;;;5035983;28;20053;-79
2023/02/01 06:36:32;;;;;;;32.45;9.25;;;4.10;99.90;;;;;;5043357;28;21071;-81
2023/02/01 06:38:59;;;;;;;29.98;8.35;;;4.10;99.90;;;;;;5050072;28;20064;-79
2023/02/01 06:41:26;;;;;;;27.58;8.05;;;4.10;99.90;;;;;;5050277;28;20044;-80
2023/02/01 06:43:55;;;;;;;22.77;7.43;;;4.10;99.90;;;;;;5046329;28;20064;-79
2023/02/01 06:46:22;;;;;;;27.25;9.45;;;4.10;99.90;;;;;;5047748;28;20068;-80
2023/02/01 06:48:50;;;;;;;30.45;8.90;;;4.10;99.90;;;;;;5061117;28;20036;-79
2023/02/01 06:51:25;;;;;;;33.92;8.75;;;4.20;99.90;;;;;;5040736;28;20040;-79
2023/02/01 06:53:52;;;;;;;29.25;8.25;;;4.20;99.90;;;;;;5043823;28;20052;-79
2023/02/01 06:56:19;;;;;;;25.88;7.00;;;4.20;99.90;;;;;;5050302;28;20131;-80
2023/02/01 06:58:47;;;;;;;17.75;7.78;;;4.20;99.90;;;;;;5026984;28;20510;-81
2023/02/01 07:01:14;;;;;;;30.38;7.75;;;4.20;99.90;;;;;;5025532;28;20437;-79
2023/02/01 07:03:41;;;;;;;15.10;7.15;;;4.30;99.90;;;;;;5039751;28;20132;-80
2023/02/01 07:06:09;;;;;;;28.35;9.07;;;4.30;99.90;;;;;;5025733;28;20303;-79
2023/02/01 07:08:37;;;;;;;24.15;8.70;;;4.30;99.90;;;;;;5033428;28;20341;-80
2023/02/01 07:11:06;;;;;;;28.10;7.32;;;4.30;99.90;;;;;;5046995;28;20187;-79
2023/02/01 07:13:33;;;;;;;22.60;7.03;;;4.30;99.90;;;;;;5023499;28;20055;-79
2023/02/01 07:16:02;;;;;;;19.67;6.30;;;4.30;99.90;;;;;;5026480;28;20447;-79
2023/02/01 07:18:30;;;;;;;22.20;6.45;;;4.30;99.90;;;;;;5024896;28;20047;-80
2023/02/01 07:20:57;;;;;;;27.33;7.97;;;4.30;99.90;;;;;;5048981;28;20261;-79
2023/02/01 07:23:25;;;;;;;32.65;9.05;;;4.30;99.90;;;;;;5029330;28;20048;-80
2023/02/01 07:25:57;;;;;;;22.20;7.53;;;4.30;99.90;;;;;;5041873;28;20063;-79
2023/02/01 07:28:25;;;;;;;22.38;8.43;;;4.40;99.90;;;;;;5030201;28;20140;-79
2023/02/01 07:30:52;;;;;;;19.38;7.70;;;4.30;99.90;;;;;;5042761;28;20041;-80
2023/02/01 07:33:21;;;;;;;21.50;7.57;;;4.30;99.90;;;;;;5047474;28;20480;-79
2023/02/01 07:35:49;;;;;;;27.85;7.78;;;4.30;99.90;;;;;;5048602;28;20044;-79
2023/02/01 07:38:16;;;;;;;27.00;8.25;;;4.30;99.90;;;;;;5038998;28;20046;-80
2023/02/01 07:40:43;;;;;;;19.45;9.43;;;4.30;99.90;;;;;;5031221;28;20392;-78
2023/02/01 07:43:10;;;;;;;25.63;9.98;;;4.30;99.90;;;;;;5029293;28;20553;-80
2023/02/01 07:45:37;;;;;;;23.20;9.60;;;4.40;99.90;;;;;;5026855;28;20044;-78
2023/02/01 07:48:04;;;;;;;42.55;10.20;;;4.40;99.90;;;;;;5031522;28;20045;-80
2023/02/01 07:50:31;;;;;;;26.48;8.70;;;4.40;99.90;;;;;;5032104;28;20041;-79
2023/02/01 07:53:01;;;;;;;25.42;7.70;;;4.40;99.90;;;;;;5024169;28;20143;-79
2023/02/01 07:55:29;;;;;;;23.70;9.35;;;4.40;99.90;;;;;;5023700;28;20284;-80
2023/02/01 07:57:58;;;;;;;26.67;9.32;;;4.30;99.90;;;;;;5057679;28;20112;-78
2023/02/01 08:03:12;;;;;;;18.48;10.15;;;4.30;99.90;;;;;;5046777;28;20041;-78
2023/02/01 08:05:38;;;;;;;25.98;9.40;;;4.30;99.90;;;;;;5046732;28;20048;-80
2023/02/01 08:08:06;;;;;;;22.15;9.50;;;4.40;99.90;;;;;;5028209;28;20135;-77
2023/02/01 08:10:34;;;;;;;18.48;9.23;;;4.40;99.90;;;;;;5033965;28;20037;-80
2023/02/01 08:13:02;;;;;;;22.85;9.50;;;4.40;99.90;;;;;;5050652;28;20040;-81
2023/02/01 08:15:29;;;;;;;19.63;9.88;;;4.40;99.90;;;;;;5032588;28;20048;-79
2023/02/01 08:17:57;;;;;;;18.70;9.70;;;4.40;99.90;;;;;;5047799;28;20114;-77
2023/02/01 08:20:25;;;;;;;26.35;10.48;;;4.40;99.90;;;;;;5043290;28;20045;-81
2023/02/01 08:22:53;;;;;;;28.55;9.50;;;4.50;99.90;;;;;;5042037;28;20044;-80
2023/02/01 08:25:21;;;;;;;15.30;8.90;;;4.50;99.90;;;;;;5036912;28;20048;-80
2023/02/01 08:27:47;;;;;;;24.52;9.43;;;4.50;99.90;;;;;;5038536;28;20048;-78
2023/02/01 08:30:14;;;;;;;25.38;10.43;;;4.40;99.90;;;;;;5023725;28;20098;-79
2023/02/01 08:32:41;;;;;;;18.13;9.60;;;4.40;99.90;;;;;;5027601;28;20063;-80
2023/02/01 08:35:08;;;;;;;26.92;11.57;;;4.40;99.90;;;;;;5037065;28;20055;-79
2023/02/01 08:37:36;;;;;;;27.38;12.10;;;4.40;99.90;;;;;;5030596;28;20358;-81
2023/02/01 08:40:04;;;;;;;28.77;10.48;;;4.40;99.90;;;;;;5045739;28;20067;-80
2023/02/01 08:45:21;;;;;;;24.45;10.50;;;4.40;99.90;;;;;;5043616;28;20371;-79
2023/02/01 08:47:48;;;;;;;31.02;11.20;;;4.40;99.90;;;;;;5020823;28;20465;-80
2023/02/01 08:50:15;;;;;;;31.77;10.18;;;4.40;99.90;;;;;;5021642;28;20068;-79
2023/02/01 08:52:42;;;;;;;34.25;11.02;;;4.40;99.90;;;;;;5031316;28;20126;-80
2023/02/01 08:55:10;;;;;;;30.42;11.88;;;4.40;99.90;;;;;;5069677;28;20053;-78
2023/02/01 08:57:39;;;;;;;28.42;10.45;;;4.40;99.90;;;;;;5046530;28;20064;-78
2023/02/01 09:00:10;;;;;;;29.48;12.48;;;4.40;99.90;;;;;;5033977;28;20083;-81
2023/02/01 09:02:37;;;;;;;29.85;10.50;;;4.40;99.90;;;;;;5058634;28;20509;-77
2023/02/01 09:05:05;;;;;;;36.10;13.40;;;4.30;99.90;;;;;;5033677;28;20051;-81
2023/02/01 09:07:32;;;;;;;32.15;12.65;;;4.30;99.90;;;;;;5029530;28;20831;-79
2023/02/01 09:10:02;;;;;;;39.55;12.15;;;4.30;99.90;;;;;;5046758;28;20040;-81
2023/02/01 09:12:30;;;;;;;18.45;10.38;;;4.30;99.90;;;;;;5041521;28;20442;-80
2023/02/01 09:14:59;;;;;;;23.45;11.82;;;4.30;99.90;;;;;;5052382;28;20127;-78
2023/02/01 09:17:27;;;;;;;23.40;10.90;;;4.40;99.90;;;;;;5031846;28;20040;-80
2023/02/01 09:19:55;;;;;;;34.90;13.55;;;4.30;99.90;;;;;;5028215;28;20051;-79
2023/02/01 09:22:21;;;;;;;21.27;10.93;;;4.40;99.90;;;;;;5025092;28;20562;-79
2023/02/01 09:24:48;;;;;;;29.70;11.98;;;4.40;99.90;;;;;;5045550;28;20390;-80
2023/02/01 09:27:15;;;;;;;33.22;11.45;;;4.40;99.90;;;;;;5031716;28;20064;-80
2023/02/01 09:29:42;;;;;;;20.35;10.25;;;4.40;99.90;;;;;;5061484;28;20079;-80
2023/02/01 09:32:10;;;;;;;16.67;10.05;;;4.50;99.90;;;;;;5057022;28;20040;-80
2023/02/01 09:34:37;;;;;;;36.50;13.68;;;4.50;99.90;;;;;;5032901;28;20819;-80
2023/02/01 09:37:03;;;;;;;32.45;12.32;;;4.50;99.90;;;;;;5031424;28;20063;-78
2023/02/01 09:39:30;;;;;;;27.33;13.32;;;4.60;99.90;;;;;;5026004;28;20056;-78
2023/02/01 09:42:37;;;;;;;31.90;14.23;;;4.60;99.90;;;;;;5049786;28;20041;-78
2023/02/01 09:45:09;;;;;;;17.60;12.32;;;4.60;99.90;;;;;;5004632;28;20044;-82
2023/02/01 09:47:42;;;;;;;32.92;15.15;;;4.50;99.90;;;;;;5045606;28;20040;-78
2023/02/01 09:50:16;;;;;;;29.02;15.23;;;4.60;99.90;;;;;;5029403;28;20044;-80
2023/02/01 09:52:52;;;;;;;23.02;16.20;;;4.60;99.90;;;;;;5051059;28;20123;-80
2023/02/01 09:55:32;;;;;;;26.75;14.98;;;4.60;99.90;;;;;;5027472;28;20056;-77
2023/02/01 09:58:05;;;;;;;27.42;14.57;;;4.60;99.90;;;;;;5053323;28;20048;-81
2023/02/01 10:00:39;;;;;;;26.70;15.73;;;4.60;99.90;;;;;;5039143;28;20048;-79
2023/02/01 10:03:13;;;;;;;33.92;16.52;;;4.60;99.90;;;;;;5060451;23;20143;-76
2023/02/01 10:05:43;;;;;;;27.17;17.35;;;4.50;99.90;;;;;;5025656;28;20306;-75
2023/02/01 10:08:26;;;;;;;29.88;14.95;;;4.50;99.90;;;;;;5017481;28;20059;-74
2023/02/01 10:10:57;;;;;;;34.47;16.75;;;4.60;99.90;;;;;;5023973;28;20049;-76
2023/02/01 10:13:30;;;;;;;31.73;15.48;;;4.50;99.90;;;;;;5032579;28;20051;-75
2023/02/01 10:16:10;;;;;;;36.95;17.83;;;4.50;99.90;;;;;;5025122;28;20072;-74
2023/02/01 10:18:59;;;;;;;34.17;19.55;;;4.50;99.90;;;;;;5003005;28;20098;-76
2023/02/01 10:22:00;;;;;;;31.23;17.35;;;4.60;99.90;;;;;;5015583;28;20489;-76
2023/02/01 10:25:00;;;;;;;36.10;17.02;;;4.60;99.90;;;;;;4984726;28;20051;-74
2023/02/01 10:27:35;;;;;;;42.20;18.48;;;4.50;99.90;;;;;;4987877;28;20044;-75
2023/02/01 10:30:40;;;;;;;36.42;20.02;;;4.60;99.90;;;;;;5027760;28;20068;-76
2023/02/01 10:33:23;;;;;;;44.78;18.38;;;4.50;99.90;;;;;;4921475;28;20134;-74
2023/02/01 10:36:14;;;;;;;34.05;18.00;;;4.60;99.90;;;;;;5016718;28;20052;-75
2023/02/01 10:38:42;;;;;;;34.33;17.55;;;4.60;99.90;;;;;;5032845;28;20040;-74
2023/02/01 10:41:20;;;;;;;32.53;17.27;;;4.60;99.90;;;;;;5008129;28;20420;-75
2023/02/01 10:43:55;;;;;;;35.25;17.08;;;4.60;99.90;;;;;;5036510;28;20055;-76
2023/02/01 10:46:25;;;;;;;34.97;18.27;;;4.60;99.90;;;;;;5022388;28;20033;-75
2023/02/01 10:48:55;;;;;;;30.52;17.00;;;4.70;99.90;;;;;;5021773;28;20071;-75
2023/02/01 10:51:39;;;;;;;40.15;18.63;;;4.70;99.90;;;;;;5038608;28;20052;-76
2023/02/01 10:54:20;;;;;;;33.10;17.65;;;4.70;99.90;;;;;;5042109;28;20128;-75
2023/02/01 10:56:48;;;;;;;43.47;20.45;;;4.80;99.90;;;;;;5042427;28;20592;-74
2023/02/01 10:59:25;;;;;;;33.92;18.83;;;4.70;99.90;;;;;;5035108;28;20056;-75
2023/02/01 11:02:00;;;;;;;31.90;18.55;;;4.70;99.90;;;;;;5039946;28;20017;-76
2023/02/01 11:04:32;;;;;;;33.38;19.17;;;4.80;99.90;;;;;;5035515;28;20045;-77
2023/02/01 11:07:19;;;;;;;31.52;18.23;;;4.70;99.90;;;;;;5044207;28;20512;-74
2023/02/01 11:09:54;;;;;;;30.92;19.65;;;4.70;99.90;;;;;;5028656;28;20091;-77
2023/02/01 11:12:32;;;;;;;35.38;19.70;;;4.80;99.90;;;;;;5023307;28;20135;-74
2023/02/01 11:15:11;;;;;;;32.83;19.67;;;4.80;99.90;;;;;;5024041;28;20060;-74
2023/02/01 11:17:47;;;;;;;31.75;19.13;;;4.80;99.90;;;;;;5001164;28;20497;-75
2023/02/01 11:20:18;;;;;;;38.30;19.50;;;4.70;99.90;;;;;;5036003;28;20157;-74
2023/02/01 11:22:55;;;;;;;36.80;20.63;;;4.80;99.90;;;;;;5022944;28;20053;-74
2023/02/01 11:25:24;;;;;;;28.90;20.73;;;4.80;99.90;;;;;;5029922;28;20070;-73
2023/02/01 11:27:54;;;;;;;33.70;19.60;;;4.80;99.90;;;;;;5027030;28;20158;-74
2023/02/01 11:30:34;;;;;;;27.45;20.10;;;4.80;99.90;;;;;;5012047;28;20041;-77
2023/02/01 11:33:03;;;;;;;27.83;20.48;;;4.80;99.90;;;;;;5002986;28;20146;-74
2023/02/01 11:35:34;;;;;;;35.35;21.02;;;4.80;99.90;;;;;;5015660;28;20871;-76
2023/02/01 11:38:10;;;;;;;34.60;21.05;;;4.80;99.90;;;;;;5019194;28;20336;-73
2023/02/01 11:40:38;;;;;;;34.25;20.27;;;4.80;99.90;;;;;;5021716;28;20128;-75
2023/02/01 11:43:24;;;;;;;28.33;21.00;;;4.80;99.90;;;;;;5037256;28;20365;-74
2023/02/01 11:45:59;;;;;;;23.40;19.02;;;4.80;99.90;;;;;;5035105;28;20594;-73
2023/02/01 11:48:27;;;;;;;;;;;4.80;99.90;;;;;;5014437;28;20048;-73
2023/02/01 11:51:31;;;;;;;34.90;21.50;;;4.80;99.90;;;;;;5017677;28;20198;-73
2023/02/01 11:54:23;;;;;;;29.17;20.92;;;4.80;99.90;;;;;;5031981;28;20643;-74
2023/02/01 11:57:22;;;;;;;30.70;21.50;;;4.80;99.90;;;;;;5020551;28;20543;-72
2023/02/01 12:00:28;;;;;;;34.42;22.08;;;4.90;99.90;;;;;;5004355;28;20534;-72
2023/02/01 12:03:12;;;;;;;41.00;21.00;;;4.90;99.90;;;;;;5030031;28;20078;-73
2023/02/01 12:05:57;;;;;;;34.35;23.58;;;4.90;99.90;;;;;;5021206;28;20045;-74
2023/02/01 12:08:47;;;;;;;;;;;4.90;99.90;;;;;;5016798;28;20079;-72
2023/02/01 12:11:26;;;;;;;34.55;21.63;;;4.90;99.90;;;;;;4995270;28;20314;-77
2023/02/01 12:13:58;;;;;;;33.97;21.83;;;4.80;99.90;;;;;;5033866;28;20131;-73
2023/02/01 12:16:47;;;;;;;36.80;25.73;;;4.80;99.90;;;;;;5030987;28;20033;-74
2023/02/01 12:19:23;;;;;;;44.97;24.73;;;4.80;99.90;;;;;;5015822;28;20051;-76
2023/02/01 12:22:12;;;;;;;37.97;24.88;;;4.80;99.90;;;;;;5029007;28;21915;-74
2023/02/01 12:25:00;;;;;;;33.92;22.98;;;4.80;99.90;;;;;;5017001;28;20653;-74
2023/02/01 12:28:01;;;;;;;32.45;19.13;;;4.80;99.90;;;;;;5001764;28;20064;-74
2023/02/01 12:31:04;;;;;;;29.15;17.05;;;4.70;99.90;;;;;;5021452;28;20048;-73
2023/02/01 12:33:43;;;;;;;31.25;19.25;;;4.60;99.90;;;;;;5012847;28;20392;-75
2023/02/01 12:36:18;;;;;;;35.20;16.73;;;4.50;99.90;;;;;;5025592;28;20047;-74
2023/02/01 12:39:20;;;;;;;34.03;16.52;;;4.50;99.90;;;;;;5020453;28;20048;-74
2023/02/01 12:42:11;;;;;;;29.40;15.50;;;4.40;99.90;;;;;;5021535;28;20063;-74
2023/02/01 12:44:56;;;;;;;33.10;16.52;;;4.40;99.90;;;;;;4998608;28;20037;-75
2023/02/01 12:47:32;;;;;;;30.52;14.25;;;4.50;99.90;;;;;;5030238;28;20515;-73
2023/02/01 12:50:21;;;;;;;31.45;16.27;;;4.40;99.90;;;;;;5018143;28;20532;-74
2023/02/01 12:52:54;;;;;;;45.42;19.13;;;4.30;99.90;;;;;;5004004;28;20159;-76
2023/02/01 12:55:34;;;;;;;30.08;14.05;;;4.40;99.90;;;;;;5014044;28;20106;-75
2023/02/01 12:58:21;;;;;;;47.55;17.52;;;4.30;99.90;;;;;;5025023;28;20049;-75
2023/02/01 13:01:08;;;;;;;43.47;19.63;;;4.30;99.90;;;;;;5015543;28;20268;-75
2023/02/01 13:03:39;;;;;;;46.35;19.95;;;4.20;99.90;;;;;;5027885;28;20501;-75
2023/02/01 13:06:32;;;;;;;33.90;16.25;;;4.20;99.90;;;;;;5020322;28;20040;-75
2023/02/01 13:09:17;;;;;;;33.88;16.95;;;4.20;99.90;;;;;;5037732;28;20045;-75
2023/02/01 13:11:46;;;;;;;;;;;4.20;99.90;;;;;;5015988;28;20216;-76
2023/02/01 13:14:21;;;;;;;35.03;14.70;;;4.20;99.90;;;;;;5017722;28;19921;-75
2023/02/01 13:16:53;;;;;;;47.42;19.15;;;4.20;99.90;;;;;;5022154;28;20082;-76
2023/02/01 13:19:46;;;;;;;36.50;16.38;;;4.20;99.90;;;;;;5029650;28;20064;-76
2023/02/01 13:22:22;;;;;;;40.58;17.05;;;4.20;99.90;;;;;;5008570;28;20041;-77
2023/02/01 13:25:00;;;;;;;31.23;17.35;;;4.20;99.90;;;;;;5015019;28;20192;-76
2023/02/01 13:27:30;;;;;;;38.13;17.85;;;4.10;99.90;;;;;;5013974;28;20509;-77
2023/02/01 13:30:00;;;;;;;30.85;15.10;;;4.10;99.90;;;;;;5020067;28;20037;-75
2023/02/01 13:32:54;;;;;;;45.40;21.20;;;4.00;99.90;;;;;;5007889;28;20443;-77
2023/02/01 13:35:57;;;;;;;38.58;20.05;;;4.10;99.90;;;;;;5030639;28;20100;-77